sensor_id;sensor_type;location;lat;lon;timestamp;P1;durP1;ratioP1;P2;durP2;ratioP2
48629;SDS011;34426;52.180;4.462;2023-04-03T00:01:10;5.35;;;1.88;;
48629;SDS011;34426;52.180;4.462;2023-04-03T00:03:41;4.70;;;1.90;;
48629;SDS011;34426;52.180;4.462;2023-04-03T00:06:09;6.97;;;1.80;;
48629;SDS011;34426;52.180;4.462;2023-04-03T00:08:46;3.95;;;1.90;;
48629;SDS011;34426;52.180;4.462;2023-04-03T00:11:17;4.15;;;1.65;;
48629;SDS011;34426;52.180;4.462;2023-04-03T00:13:49;5.13;;;1.45;;
48629;SDS011;34426;52.180;4.462;2023-04-03T00:16:17;4.28;;;1.60;;
48629;SDS011;34426;52.180;4.462;2023-04-03T00:18:51;2.05;;;1.60;;
48629;SDS011;34426;52.180;4.462;2023-04-03T00:21:25;3.58;;;1.55;;
48629;SDS011;34426;52.180;4.462;2023-04-03T00:23:55;2.40;;;1.27;;
48629;SDS011;34426;52.180;4.462;2023-04-03T00:26:23;5.03;;;1.90;;
48629;SDS011;34426;52.180;4.462;2023-04-03T00:28:52;2.92;;;1.60;;
48629;SDS011;34426;52.180;4.462;2023-04-03T00:31:20;5.13;;;1.60;;
48629;SDS011;34426;52.180;4.462;2023-04-03T00:33:48;3.90;;;1.60;;
48629;SDS011;34426;52.180;4.462;2023-04-03T00:36:16;6.78;;;1.60;;
48629;SDS011;34426;52.180;4.462;2023-04-03T00:38:53;2.78;;;1.35;;
48629;SDS011;34426;52.180;4.462;2023-04-03T00:41:20;7.38;;;1.30;;
48629;SDS011;34426;52.180;4.462;2023-04-03T00:43:47;3.83;;;1.40;;
48629;SDS011;34426;52.180;4.462;2023-04-03T00:46:31;3.92;;;1.50;;
48629;SDS011;34426;52.180;4.462;2023-04-03T00:49:07;3.45;;;1.50;;
48629;SDS011;34426;52.180;4.462;2023-04-03T00:51:34;5.22;;;1.80;;
48629;SDS011;34426;52.180;4.462;2023-04-03T00:54:02;2.90;;;1.27;;
48629;SDS011;34426;52.180;4.462;2023-04-03T00:56:36;3.70;;;1.60;;
48629;SDS011;34426;52.180;4.462;2023-04-03T00:59:05;2.70;;;1.30;;
48629;SDS011;34426;52.180;4.462;2023-04-03T01:01:40;3.90;;;1.48;;
48629;SDS011;34426;52.180;4.462;2023-04-03T01:04:24;4.15;;;1.58;;
48629;SDS011;34426;52.180;4.462;2023-04-03T01:06:57;4.20;;;1.50;;
48629;SDS011;34426;52.180;4.462;2023-04-03T01:09:27;4.78;;;1.60;;
48629;SDS011;34426;52.180;4.462;2023-04-03T01:11:55;3.00;;;1.30;;
48629;SDS011;34426;52.180;4.462;2023-04-03T01:14:46;2.45;;;1.50;;
48629;SDS011;34426;52.180;4.462;2023-04-03T01:17:28;3.85;;;1.48;;
48629;SDS011;34426;52.180;4.462;2023-04-03T01:20:11;3.20;;;1.10;;
48629;SDS011;34426;52.180;4.462;2023-04-03T01:23:12;4.40;;;1.70;;
48629;SDS011;34426;52.180;4.462;2023-04-03T01:25:50;5.32;;;1.25;;
48629;SDS011;34426;52.180;4.462;2023-04-03T01:28:19;1.27;;;0.93;;
48629;SDS011;34426;52.180;4.462;2023-04-03T01:30:51;8.20;;;1.87;;
48629;SDS011;34426;52.180;4.462;2023-04-03T01:33:27;2.85;;;1.20;;
48629;SDS011;34426;52.180;4.462;2023-04-03T01:35:58;7.10;;;1.88;;
48629;SDS011;34426;52.180;4.462;2023-04-03T01:38:42;4.07;;;1.50;;
48629;SDS011;34426;52.180;4.462;2023-04-03T01:41:15;5.30;;;1.77;;
48629;SDS011;34426;52.180;4.462;2023-04-03T01:43:43;4.75;;;1.65;;
48629;SDS011;34426;52.180;4.462;2023-04-03T01:46:14;5.55;;;2.55;;
48629;SDS011;34426;52.180;4.462;2023-04-03T01:48:44;4.32;;;1.38;;
48629;SDS011;34426;52.180;4.462;2023-04-03T01:51:15;4.95;;;1.52;;
48629;SDS011;34426;52.180;4.462;2023-04-03T01:54:00;7.93;;;3.10;;
48629;SDS011;34426;52.180;4.462;2023-04-03T01:56:28;4.38;;;1.73;;
48629;SDS011;34426;52.180;4.462;2023-04-03T01:58:55;2.97;;;1.42;;
48629;SDS011;34426;52.180;4.462;2023-04-03T02:01:28;5.95;;;1.60;;
48629;SDS011;34426;52.180;4.462;2023-04-03T02:04:00;6.15;;;1.80;;
48629;SDS011;34426;52.180;4.462;2023-04-03T02:06:30;4.13;;;1.52;;
48629;SDS011;34426;52.180;4.462;2023-04-03T02:09:00;3.05;;;1.50;;
48629;SDS011;34426;52.180;4.462;2023-04-03T02:11:29;4.28;;;1.90;;
48629;SDS011;34426;52.180;4.462;2023-04-03T02:13:57;6.82;;;1.65;;
48629;SDS011;34426;52.180;4.462;2023-04-03T02:16:30;5.95;;;1.80;;
48629;SDS011;34426;52.180;4.462;2023-04-03T02:19:09;6.55;;;1.60;;
48629;SDS011;34426;52.180;4.462;2023-04-03T02:21:36;8.88;;;2.25;;
48629;SDS011;34426;52.180;4.462;2023-04-03T02:24:04;6.13;;;2.00;;
48629;SDS011;34426;52.180;4.462;2023-04-03T02:26:35;5.80;;;1.75;;
48629;SDS011;34426;52.180;4.462;2023-04-03T02:29:03;7.45;;;1.98;;
48629;SDS011;34426;52.180;4.462;2023-04-03T02:31:30;5.93;;;1.65;;
48629;SDS011;34426;52.180;4.462;2023-04-03T02:34:00;7.97;;;1.80;;
48629;SDS011;34426;52.180;4.462;2023-04-03T02:38:58;4.30;;;1.67;;
48629;SDS011;34426;52.180;4.462;2023-04-03T02:41:26;7.10;;;1.98;;
48629;SDS011;34426;52.180;4.462;2023-04-03T02:43:53;5.90;;;1.95;;
48629;SDS011;34426;52.180;4.462;2023-04-03T02:46:21;3.80;;;1.70;;
48629;SDS011;34426;52.180;4.462;2023-04-03T02:48:59;6.90;;;2.00;;
48629;SDS011;34426;52.180;4.462;2023-04-03T02:51:27;4.55;;;1.70;;
48629;SDS011;34426;52.180;4.462;2023-04-03T02:53:56;3.50;;;1.95;;
48629;SDS011;34426;52.180;4.462;2023-04-03T02:56:24;3.20;;;1.70;;
48629;SDS011;34426;52.180;4.462;2023-04-03T02:58:55;4.35;;;1.55;;
48629;SDS011;34426;52.180;4.462;2023-04-03T03:01:22;3.95;;;1.77;;
48629;SDS011;34426;52.180;4.462;2023-04-03T03:03:50;8.02;;;2.20;;
48629;SDS011;34426;52.180;4.462;2023-04-03T03:06:18;3.40;;;1.90;;
48629;SDS011;34426;52.180;4.462;2023-04-03T03:08:51;8.73;;;2.40;;
48629;SDS011;34426;52.180;4.462;2023-04-03T03:11:21;5.38;;;2.00;;
48629;SDS011;34426;52.180;4.462;2023-04-03T03:16:18;7.35;;;2.38;;
48629;SDS011;34426;52.180;4.462;2023-04-03T03:18:49;3.15;;;1.70;;
48629;SDS011;34426;52.180;4.462;2023-04-03T03:21:16;9.95;;;2.03;;
48629;SDS011;34426;52.180;4.462;2023-04-03T03:23:44;6.60;;;2.08;;
48629;SDS011;34426;52.180;4.462;2023-04-03T03:26:12;7.10;;;2.10;;
48629;SDS011;34426;52.180;4.462;2023-04-03T03:28:48;4.18;;;1.73;;
48629;SDS011;34426;52.180;4.462;2023-04-03T03:31:16;4.78;;;1.92;;
48629;SDS011;34426;52.180;4.462;2023-04-03T03:33:44;6.35;;;2.35;;
48629;SDS011;34426;52.180;4.462;2023-04-03T03:36:20;7.93;;;2.55;;
48629;SDS011;34426;52.180;4.462;2023-04-03T03:38:51;5.70;;;3.03;;
48629;SDS011;34426;52.180;4.462;2023-04-03T03:41:35;7.43;;;2.05;;
48629;SDS011;34426;52.180;4.462;2023-04-03T03:44:07;5.97;;;1.90;;
48629;SDS011;34426;52.180;4.462;2023-04-03T03:46:40;5.32;;;2.30;;
48629;SDS011;34426;52.180;4.462;2023-04-03T03:49:08;8.70;;;2.50;;
48629;SDS011;34426;52.180;4.462;2023-04-03T03:51:50;8.10;;;2.05;;
48629;SDS011;34426;52.180;4.462;2023-04-03T03:54:22;6.72;;;2.25;;
48629;SDS011;34426;52.180;4.462;2023-04-03T03:56:52;9.32;;;2.45;;
48629;SDS011;34426;52.180;4.462;2023-04-03T03:59:22;10.30;;;2.75;;
48629;SDS011;34426;52.180;4.462;2023-04-03T04:01:53;5.78;;;2.40;;
48629;SDS011;34426;52.180;4.462;2023-04-03T04:04:24;6.90;;;2.20;;
48629;SDS011;34426;52.180;4.462;2023-04-03T04:06:52;9.23;;;2.33;;
48629;SDS011;34426;52.180;4.462;2023-04-03T04:09:26;4.88;;;2.10;;
48629;SDS011;34426;52.180;4.462;2023-04-03T04:11:57;6.15;;;2.30;;
48629;SDS011;34426;52.180;4.462;2023-04-03T04:14:30;5.47;;;2.25;;
48629;SDS011;34426;52.180;4.462;2023-04-03T04:17:02;5.53;;;2.17;;
48629;SDS011;34426;52.180;4.462;2023-04-03T04:19:29;7.20;;;2.05;;
48629;SDS011;34426;52.180;4.462;2023-04-03T04:21:57;7.00;;;2.40;;
48629;SDS011;34426;52.180;4.462;2023-04-03T04:24:25;8.00;;;2.65;;
48629;SDS011;34426;52.180;4.462;2023-04-03T04:26:55;5.85;;;2.55;;
48629;SDS011;34426;52.180;4.462;2023-04-03T04:29:23;7.32;;;2.38;;
48629;SDS011;34426;52.180;4.462;2023-04-03T04:31:53;8.50;;;2.50;;
48629;SDS011;34426;52.180;4.462;2023-04-03T04:34:23;8.60;;;2.97;;
48629;SDS011;34426;52.180;4.462;2023-04-03T04:36:54;7.82;;;2.42;;
48629;SDS011;34426;52.180;4.462;2023-04-03T04:39:22;5.75;;;2.47;;
48629;SDS011;34426;52.180;4.462;2023-04-03T04:41:53;9.25;;;2.70;;
48629;SDS011;34426;52.180;4.462;2023-04-03T04:44:29;5.80;;;2.60;;
48629;SDS011;34426;52.180;4.462;2023-04-03T04:47:02;7.18;;;2.53;;
48629;SDS011;34426;52.180;4.462;2023-04-03T04:49:32;11.65;;;2.88;;
48629;SDS011;34426;52.180;4.462;2023-04-03T04:54:34;11.38;;;3.30;;
48629;SDS011;34426;52.180;4.462;2023-04-03T04:57:10;6.93;;;2.63;;
48629;SDS011;34426;52.180;4.462;2023-04-03T04:59:54;9.13;;;2.65;;
48629;SDS011;34426;52.180;4.462;2023-04-03T05:02:24;9.15;;;2.70;;
48629;SDS011;34426;52.180;4.462;2023-04-03T05:05:01;7.15;;;2.70;;
48629;SDS011;34426;52.180;4.462;2023-04-03T05:07:32;7.70;;;2.70;;
48629;SDS011;34426;52.180;4.462;2023-04-03T05:10:03;15.18;;;2.92;;
48629;SDS011;34426;52.180;4.462;2023-04-03T05:12:31;12.60;;;3.10;;
48629;SDS011;34426;52.180;4.462;2023-04-03T05:15:03;9.83;;;3.10;;
48629;SDS011;34426;52.180;4.462;2023-04-03T05:17:33;6.80;;;2.97;;
48629;SDS011;34426;52.180;4.462;2023-04-03T05:25:01;7.40;;;2.65;;
48629;SDS011;34426;52.180;4.462;2023-04-03T05:27:29;8.82;;;3.05;;
48629;SDS011;34426;52.180;4.462;2023-04-03T05:30:01;7.15;;;2.58;;
48629;SDS011;34426;52.180;4.462;2023-04-03T05:35:06;12.80;;;2.88;;
48629;SDS011;34426;52.180;4.462;2023-04-03T05:37:41;10.13;;;3.55;;
48629;SDS011;34426;52.180;4.462;2023-04-03T05:40:15;14.43;;;3.15;;
48629;SDS011;34426;52.180;4.462;2023-04-03T05:42:46;9.77;;;2.95;;
48629;SDS011;34426;52.180;4.462;2023-04-03T05:45:21;7.75;;;2.50;;
48629;SDS011;34426;52.180;4.462;2023-04-03T05:47:57;10.98;;;3.03;;
48629;SDS011;34426;52.180;4.462;2023-04-03T05:50:37;7.57;;;2.80;;
48629;SDS011;34426;52.180;4.462;2023-04-03T05:53:06;9.43;;;3.30;;
48629;SDS011;34426;52.180;4.462;2023-04-03T05:55:42;7.18;;;3.05;;
48629;SDS011;34426;52.180;4.462;2023-04-03T05:58:11;6.53;;;3.30;;
48629;SDS011;34426;52.180;4.462;2023-04-03T06:00:46;8.10;;;3.35;;
48629;SDS011;34426;52.180;4.462;2023-04-03T06:03:15;10.10;;;3.10;;
48629;SDS011;34426;52.180;4.462;2023-04-03T06:05:46;8.98;;;3.50;;
48629;SDS011;34426;52.180;4.462;2023-04-03T06:08:12;7.85;;;3.10;;
48629;SDS011;34426;52.180;4.462;2023-04-03T06:10:38;6.25;;;3.00;;
48629;SDS011;34426;52.180;4.462;2023-04-03T06:13:09;10.05;;;3.40;;
48629;SDS011;34426;52.180;4.462;2023-04-03T06:15:36;7.25;;;2.78;;
48629;SDS011;34426;52.180;4.462;2023-04-03T06:18:02;6.22;;;2.70;;
48629;SDS011;34426;52.180;4.462;2023-04-03T06:20:29;8.82;;;3.05;;
48629;SDS011;34426;52.180;4.462;2023-04-03T06:23:02;8.57;;;3.00;;
48629;SDS011;34426;52.180;4.462;2023-04-03T06:25:28;12.05;;;3.00;;
48629;SDS011;34426;52.180;4.462;2023-04-03T06:27:56;8.82;;;2.83;;
48629;SDS011;34426;52.180;4.462;2023-04-03T06:30:24;6.88;;;2.38;;
48629;SDS011;34426;52.180;4.462;2023-04-03T06:32:53;11.32;;;2.80;;
48629;SDS011;34426;52.180;4.462;2023-04-03T06:35:23;10.52;;;3.70;;
48629;SDS011;34426;52.180;4.462;2023-04-03T06:40:43;11.45;;;2.97;;
48629;SDS011;34426;52.180;4.462;2023-04-03T06:43:13;12.30;;;2.88;;
48629;SDS011;34426;52.180;4.462;2023-04-03T06:45:40;6.53;;;2.95;;
48629;SDS011;34426;52.180;4.462;2023-04-03T06:48:06;8.55;;;3.40;;
48629;SDS011;34426;52.180;4.462;2023-04-03T06:50:37;7.60;;;3.00;;
48629;SDS011;34426;52.180;4.462;2023-04-03T06:53:15;9.65;;;3.10;;
48629;SDS011;34426;52.180;4.462;2023-04-03T06:55:44;9.15;;;2.95;;
48629;SDS011;34426;52.180;4.462;2023-04-03T06:58:10;10.23;;;2.60;;
48629;SDS011;34426;52.180;4.462;2023-04-03T07:00:38;10.75;;;3.38;;
48629;SDS011;34426;52.180;4.462;2023-04-03T07:03:11;6.18;;;2.65;;
48629;SDS011;34426;52.180;4.462;2023-04-03T07:05:39;7.97;;;2.60;;
48629;SDS011;34426;52.180;4.462;2023-04-03T07:08:32;8.68;;;2.92;;
48629;SDS011;34426;52.180;4.462;2023-04-03T07:11:08;10.27;;;2.90;;
48629;SDS011;34426;52.180;4.462;2023-04-03T07:13:35;8.30;;;2.60;;
48629;SDS011;34426;52.180;4.462;2023-04-03T07:16:01;7.68;;;2.58;;
48629;SDS011;34426;52.180;4.462;2023-04-03T07:18:35;7.13;;;3.05;;
48629;SDS011;34426;52.180;4.462;2023-04-03T07:21:04;8.93;;;3.25;;
48629;SDS011;34426;52.180;4.462;2023-04-03T07:23:49;9.70;;;2.90;;
48629;SDS011;34426;52.180;4.462;2023-04-03T07:26:16;12.18;;;3.17;;
48629;SDS011;34426;52.180;4.462;2023-04-03T07:28:47;11.88;;;3.03;;
48629;SDS011;34426;52.180;4.462;2023-04-03T07:31:24;8.35;;;2.83;;
48629;SDS011;34426;52.180;4.462;2023-04-03T07:33:51;11.70;;;2.88;;
48629;SDS011;34426;52.180;4.462;2023-04-03T07:36:36;7.65;;;2.42;;
48629;SDS011;34426;52.180;4.462;2023-04-03T07:39:10;7.70;;;2.88;;
48629;SDS011;34426;52.180;4.462;2023-04-03T07:41:50;11.10;;;2.42;;
48629;SDS011;34426;52.180;4.462;2023-04-03T07:44:22;8.85;;;2.65;;
48629;SDS011;34426;52.180;4.462;2023-04-03T07:46:47;8.60;;;2.40;;
48629;SDS011;34426;52.180;4.462;2023-04-03T07:49:15;11.20;;;2.92;;
48629;SDS011;34426;52.180;4.462;2023-04-03T07:51:41;7.90;;;2.40;;
48629;SDS011;34426;52.180;4.462;2023-04-03T07:54:08;9.55;;;2.28;;
48629;SDS011;34426;52.180;4.462;2023-04-03T07:56:33;7.63;;;2.28;;
48629;SDS011;34426;52.180;4.462;2023-04-03T07:58:59;13.30;;;2.78;;
48629;SDS011;34426;52.180;4.462;2023-04-03T08:01:24;7.57;;;2.60;;
48629;SDS011;34426;52.180;4.462;2023-04-03T08:03:50;12.95;;;2.90;;
48629;SDS011;34426;52.180;4.462;2023-04-03T08:06:15;6.22;;;2.50;;
48629;SDS011;34426;52.180;4.462;2023-04-03T08:08:41;9.15;;;2.67;;
48629;SDS011;34426;52.180;4.462;2023-04-03T08:11:09;9.77;;;2.55;;
48629;SDS011;34426;52.180;4.462;2023-04-03T08:13:35;9.45;;;2.55;;
48629;SDS011;34426;52.180;4.462;2023-04-03T08:16:07;5.72;;;2.20;;
48629;SDS011;34426;52.180;4.462;2023-04-03T08:18:33;11.00;;;2.78;;
48629;SDS011;34426;52.180;4.462;2023-04-03T08:20:59;7.05;;;2.65;;
48629;SDS011;34426;52.180;4.462;2023-04-03T08:23:24;5.53;;;2.20;;
48629;SDS011;34426;52.180;4.462;2023-04-03T08:25:50;6.25;;;2.35;;
48629;SDS011;34426;52.180;4.462;2023-04-03T08:28:17;5.53;;;2.08;;
48629;SDS011;34426;52.180;4.462;2023-04-03T08:30:42;11.40;;;2.42;;
48629;SDS011;34426;52.180;4.462;2023-04-03T08:33:09;6.53;;;2.28;;
48629;SDS011;34426;52.180;4.462;2023-04-03T08:35:38;8.45;;;2.67;;
48629;SDS011;34426;52.180;4.462;2023-04-03T08:38:04;8.40;;;2.20;;
48629;SDS011;34426;52.180;4.462;2023-04-03T08:40:29;15.55;;;2.85;;
48629;SDS011;34426;52.180;4.462;2023-04-03T08:42:58;8.48;;;2.45;;
48629;SDS011;34426;52.180;4.462;2023-04-03T08:45:43;6.88;;;2.30;;
48629;SDS011;34426;52.180;4.462;2023-04-03T08:48:12;6.63;;;2.00;;
48629;SDS011;34426;52.180;4.462;2023-04-03T08:50:41;9.30;;;2.45;;
48629;SDS011;34426;52.180;4.462;2023-04-03T08:53:11;8.50;;;2.60;;
48629;SDS011;34426;52.180;4.462;2023-04-03T08:55:40;11.32;;;2.33;;
48629;SDS011;34426;52.180;4.462;2023-04-03T08:58:10;6.00;;;1.90;;
48629;SDS011;34426;52.180;4.462;2023-04-03T09:00:41;9.20;;;2.25;;
48629;SDS011;34426;52.180;4.462;2023-04-03T09:03:13;8.88;;;2.30;;
48629;SDS011;34426;52.180;4.462;2023-04-03T09:05:41;6.65;;;2.40;;
48629;SDS011;34426;52.180;4.462;2023-04-03T09:08:12;6.15;;;1.75;;
48629;SDS011;34426;52.180;4.462;2023-04-03T09:10:46;8.70;;;1.90;;
48629;SDS011;34426;52.180;4.462;2023-04-03T09:13:13;4.57;;;2.22;;
48629;SDS011;34426;52.180;4.462;2023-04-03T09:15:53;6.10;;;2.53;;
48629;SDS011;34426;52.180;4.462;2023-04-03T09:18:20;5.28;;;1.77;;
48629;SDS011;34426;52.180;4.462;2023-04-03T09:20:49;3.58;;;1.38;;
48629;SDS011;34426;52.180;4.462;2023-04-03T09:23:23;7.07;;;2.00;;
48629;SDS011;34426;52.180;4.462;2023-04-03T09:25:54;5.38;;;1.65;;
48629;SDS011;34426;52.180;4.462;2023-04-03T09:28:26;5.07;;;1.50;;
48629;SDS011;34426;52.180;4.462;2023-04-03T09:30:54;11.13;;;2.35;;
48629;SDS011;34426;52.180;4.462;2023-04-03T09:33:20;2.38;;;1.05;;
48629;SDS011;34426;52.180;4.462;2023-04-03T09:35:47;4.90;;;1.65;;
48629;SDS011;34426;52.180;4.462;2023-04-03T09:38:20;2.00;;;1.20;;
48629;SDS011;34426;52.180;4.462;2023-04-03T09:40:47;4.53;;;1.50;;
48629;SDS011;34426;52.180;4.462;2023-04-03T09:43:28;4.18;;;1.52;;
48629;SDS011;34426;52.180;4.462;2023-04-03T09:45:56;2.70;;;1.38;;
48629;SDS011;34426;52.180;4.462;2023-04-03T09:48:49;3.55;;;1.20;;
48629;SDS011;34426;52.180;4.462;2023-04-03T09:51:16;4.00;;;1.70;;
48629;SDS011;34426;52.180;4.462;2023-04-03T09:53:42;4.75;;;1.60;;
48629;SDS011;34426;52.180;4.462;2023-04-03T09:56:19;4.43;;;1.55;;
48629;SDS011;34426;52.180;4.462;2023-04-03T09:58:48;3.97;;;1.20;;
48629;SDS011;34426;52.180;4.462;2023-04-03T10:01:25;2.92;;;1.02;;
48629;SDS011;34426;52.180;4.462;2023-04-03T10:04:03;3.53;;;1.10;;
48629;SDS011;34426;52.180;4.462;2023-04-03T10:06:32;4.38;;;1.02;;
48629;SDS011;34426;52.180;4.462;2023-04-03T10:08:59;2.70;;;1.02;;
48629;SDS011;34426;52.180;4.462;2023-04-03T10:11:26;4.35;;;0.95;;
48629;SDS011;34426;52.180;4.462;2023-04-03T10:13:53;3.90;;;1.10;;
48629;SDS011;34426;52.180;4.462;2023-04-03T10:16:21;1.80;;;1.10;;
48629;SDS011;34426;52.180;4.462;2023-04-03T10:18:54;2.33;;;1.00;;
48629;SDS011;34426;52.180;4.462;2023-04-03T10:21:33;5.18;;;0.80;;
48629;SDS011;34426;52.180;4.462;2023-04-03T10:24:05;4.00;;;1.15;;
48629;SDS011;34426;52.180;4.462;2023-04-03T10:26:37;2.45;;;1.10;;
48629;SDS011;34426;52.180;4.462;2023-04-03T10:29:08;10.18;;;1.30;;
48629;SDS011;34426;52.180;4.462;2023-04-03T10:31:48;4.50;;;1.20;;
48629;SDS011;34426;52.180;4.462;2023-04-03T10:34:20;4.70;;;1.10;;
48629;SDS011;34426;52.180;4.462;2023-04-03T10:36:50;5.22;;;1.00;;
48629;SDS011;34426;52.180;4.462;2023-04-03T10:39:25;3.03;;;1.15;;
48629;SDS011;34426;52.180;4.462;2023-04-03T10:42:04;2.17;;;0.90;;
48629;SDS011;34426;52.180;4.462;2023-04-03T10:44:36;5.30;;;1.02;;
48629;SDS011;34426;52.180;4.462;2023-04-03T10:47:15;4.47;;;1.27;;
48629;SDS011;34426;52.180;4.462;2023-04-03T10:49:48;3.53;;;0.80;;
48629;SDS011;34426;52.180;4.462;2023-04-03T10:52:20;4.13;;;1.10;;
48629;SDS011;34426;52.180;4.462;2023-04-03T10:54:51;1.58;;;0.90;;
48629;SDS011;34426;52.180;4.462;2023-04-03T10:57:23;4.40;;;0.95;;
48629;SDS011;34426;52.180;4.462;2023-04-03T10:59:51;5.57;;;1.23;;
48629;SDS011;34426;52.180;4.462;2023-04-03T11:02:24;1.48;;;0.68;;
48629;SDS011;34426;52.180;4.462;2023-04-03T11:04:53;2.17;;;1.02;;
48629;SDS011;34426;52.180;4.462;2023-04-03T11:07:24;2.33;;;0.70;;
48629;SDS011;34426;52.180;4.462;2023-04-03T11:09:53;3.63;;;1.05;;
48629;SDS011;34426;52.180;4.462;2023-04-03T11:12:24;3.53;;;0.82;;
48629;SDS011;34426;52.180;4.462;2023-04-03T11:14:53;1.48;;;0.98;;
48629;SDS011;34426;52.180;4.462;2023-04-03T11:17:24;2.22;;;0.70;;
48629;SDS011;34426;52.180;4.462;2023-04-03T11:19:59;2.80;;;1.05;;
48629;SDS011;34426;52.180;4.462;2023-04-03T11:22:29;2.25;;;0.73;;
48629;SDS011;34426;52.180;4.462;2023-04-03T11:25:01;4.55;;;0.80;;
48629;SDS011;34426;52.180;4.462;2023-04-03T11:27:30;1.92;;;0.98;;
48629;SDS011;34426;52.180;4.462;2023-04-03T11:30:05;1.02;;;0.60;;
48629;SDS011;34426;52.180;4.462;2023-04-03T11:32:48;2.20;;;0.73;;
48629;SDS011;34426;52.180;4.462;2023-04-03T11:35:27;3.28;;;0.60;;
48629;SDS011;34426;52.180;4.462;2023-04-03T11:37:53;1.23;;;0.68;;
48629;SDS011;34426;52.180;4.462;2023-04-03T11:40:23;2.35;;;0.90;;
48629;SDS011;34426;52.180;4.462;2023-04-03T11:42:52;1.42;;;0.50;;
48629;SDS011;34426;52.180;4.462;2023-04-03T11:45:25;3.08;;;0.88;;
48629;SDS011;34426;52.180;4.462;2023-04-03T11:48:01;1.50;;;0.80;;
48629;SDS011;34426;52.180;4.462;2023-04-03T11:53:32;4.05;;;1.42;;
48629;SDS011;34426;52.180;4.462;2023-04-03T11:56:00;1.02;;;0.55;;
48629;SDS011;34426;52.180;4.462;2023-04-03T11:58:27;1.95;;;0.77;;
48629;SDS011;34426;52.180;4.462;2023-04-03T12:01:05;2.15;;;0.90;;
48629;SDS011;34426;52.180;4.462;2023-04-03T12:06:47;1.90;;;0.60;;
48629;SDS011;34426;52.180;4.462;2023-04-03T12:09:31;1.20;;;0.70;;
48629;SDS011;34426;52.180;4.462;2023-04-03T12:12:24;1.20;;;0.55;;
48629;SDS011;34426;52.180;4.462;2023-04-03T12:15:16;1.48;;;0.70;;
48629;SDS011;34426;52.180;4.462;2023-04-03T12:17:44;2.72;;;0.90;;
48629;SDS011;34426;52.180;4.462;2023-04-03T12:23:23;1.73;;;0.68;;
48629;SDS011;34426;52.180;4.462;2023-04-03T12:25:53;0.82;;;0.60;;
48629;SDS011;34426;52.180;4.462;2023-04-03T12:28:25;3.65;;;1.00;;
48629;SDS011;34426;52.180;4.462;2023-04-03T12:30:55;2.25;;;0.70;;
48629;SDS011;34426;52.180;4.462;2023-04-03T12:33:23;4.47;;;0.85;;
48629;SDS011;34426;52.180;4.462;2023-04-03T12:36:04;2.40;;;0.47;;
48629;SDS011;34426;52.180;4.462;2023-04-03T12:38:39;7.65;;;1.05;;
48629;SDS011;34426;52.180;4.462;2023-04-03T12:41:21;10.05;;;0.70;;
48629;SDS011;34426;52.180;4.462;2023-04-03T12:44:09;1.50;;;0.70;;
48629;SDS011;34426;52.180;4.462;2023-04-03T12:46:58;2.78;;;0.80;;
48629;SDS011;34426;52.180;4.462;2023-04-03T12:49:35;3.80;;;0.77;;
48629;SDS011;34426;52.180;4.462;2023-04-03T12:52:04;3.70;;;0.93;;
48629;SDS011;34426;52.180;4.462;2023-04-03T12:54:42;1.33;;;0.90;;
48629;SDS011;34426;52.180;4.462;2023-04-03T12:57:12;1.55;;;0.77;;
48629;SDS011;34426;52.180;4.462;2023-04-03T12:59:45;7.68;;;0.90;;
48629;SDS011;34426;52.180;4.462;2023-04-03T13:02:20;2.95;;;0.75;;
48629;SDS011;34426;52.180;4.462;2023-04-03T13:04:48;6.10;;;1.00;;
48629;SDS011;34426;52.180;4.462;2023-04-03T13:07:18;3.55;;;0.90;;
48629;SDS011;34426;52.180;4.462;2023-04-03T13:09:47;3.83;;;0.90;;
48629;SDS011;34426;52.180;4.462;2023-04-03T13:12:21;1.55;;;0.90;;
48629;SDS011;34426;52.180;4.462;2023-04-03T13:14:51;1.35;;;0.93;;
48629;SDS011;34426;52.180;4.462;2023-04-03T13:17:17;8.75;;;1.00;;
48629;SDS011;34426;52.180;4.462;2023-04-03T13:19:43;1.45;;;0.70;;
48629;SDS011;34426;52.180;4.462;2023-04-03T13:22:15;1.58;;;1.00;;
48629;SDS011;34426;52.180;4.462;2023-04-03T13:24:52;4.85;;;1.00;;
48629;SDS011;34426;52.180;4.462;2023-04-03T13:27:20;2.05;;;0.80;;
48629;SDS011;34426;52.180;4.462;2023-04-03T13:29:49;2.08;;;0.85;;
48629;SDS011;34426;52.180;4.462;2023-04-03T13:32:17;5.85;;;0.90;;
48629;SDS011;34426;52.180;4.462;2023-04-03T13:34:45;2.85;;;0.90;;
48629;SDS011;34426;52.180;4.462;2023-04-03T13:37:18;5.05;;;1.15;;
48629;SDS011;34426;52.180;4.462;2023-04-03T13:39:45;1.88;;;0.98;;
48629;SDS011;34426;52.180;4.462;2023-04-03T13:42:23;2.25;;;1.10;;
48629;SDS011;34426;52.180;4.462;2023-04-03T13:47:37;5.55;;;0.95;;
48629;SDS011;34426;52.180;4.462;2023-04-03T13:50:12;2.13;;;0.95;;
48629;SDS011;34426;52.180;4.462;2023-04-03T13:52:41;2.33;;;0.90;;
48629;SDS011;34426;52.180;4.462;2023-04-03T13:55:15;2.13;;;1.38;;
48629;SDS011;34426;52.180;4.462;2023-04-03T13:57:53;1.77;;;0.80;;
48629;SDS011;34426;52.180;4.462;2023-04-03T14:00:31;2.28;;;0.93;;
48629;SDS011;34426;52.180;4.462;2023-04-03T14:02:59;4.40;;;1.17;;
48629;SDS011;34426;52.180;4.462;2023-04-03T14:05:25;2.97;;;1.35;;
48629;SDS011;34426;52.180;4.462;2023-04-03T14:07:51;1.65;;;0.90;;
48629;SDS011;34426;52.180;4.462;2023-04-03T14:10:17;3.58;;;0.93;;
48629;SDS011;34426;52.180;4.462;2023-04-03T14:12:43;3.50;;;1.02;;
48629;SDS011;34426;52.180;4.462;2023-04-03T14:15:15;2.13;;;0.93;;
48629;SDS011;34426;52.180;4.462;2023-04-03T14:17:43;3.17;;;1.33;;
48629;SDS011;34426;52.180;4.462;2023-04-03T14:20:10;3.35;;;1.10;;
48629;SDS011;34426;52.180;4.462;2023-04-03T14:22:39;5.95;;;1.17;;
48629;SDS011;34426;52.180;4.462;2023-04-03T14:25:05;4.68;;;1.48;;
48629;SDS011;34426;52.180;4.462;2023-04-03T14:27:33;4.43;;;1.02;;
48629;SDS011;34426;52.180;4.462;2023-04-03T14:30:02;2.13;;;1.00;;
48629;SDS011;34426;52.180;4.462;2023-04-03T14:32:33;5.75;;;1.20;;
48629;SDS011;34426;52.180;4.462;2023-04-03T14:34:59;8.43;;;1.42;;
48629;SDS011;34426;52.180;4.462;2023-04-03T14:37:29;1.55;;;0.90;;
48629;SDS011;34426;52.180;4.462;2023-04-03T14:39:56;2.92;;;1.10;;
48629;SDS011;34426;52.180;4.462;2023-04-03T14:42:24;2.00;;;0.90;;
48629;SDS011;34426;52.180;4.462;2023-04-03T14:44:53;3.42;;;1.10;;
48629;SDS011;34426;52.180;4.462;2023-04-03T14:47:20;3.22;;;1.10;;
48629;SDS011;34426;52.180;4.462;2023-04-03T14:49:49;2.55;;;1.30;;
48629;SDS011;34426;52.180;4.462;2023-04-03T14:52:16;2.50;;;1.40;;
48629;SDS011;34426;52.180;4.462;2023-04-03T14:54:44;2.75;;;1.10;;
48629;SDS011;34426;52.180;4.462;2023-04-03T14:57:09;1.80;;;1.00;;
48629;SDS011;34426;52.180;4.462;2023-04-03T14:59:38;2.17;;;0.98;;
48629;SDS011;34426;52.180;4.462;2023-04-03T15:02:25;1.98;;;1.08;;
48629;SDS011;34426;52.180;4.462;2023-04-03T15:04:54;3.22;;;1.42;;
48629;SDS011;34426;52.180;4.462;2023-04-03T15:07:19;3.08;;;1.20;;
48629;SDS011;34426;52.180;4.462;2023-04-03T15:09:45;2.70;;;1.13;;
48629;SDS011;34426;52.180;4.462;2023-04-03T15:12:11;2.15;;;1.10;;
48629;SDS011;34426;52.180;4.462;2023-04-03T15:14:37;5.00;;;1.25;;
48629;SDS011;34426;52.180;4.462;2023-04-03T15:17:03;3.20;;;1.70;;
48629;SDS011;34426;52.180;4.462;2023-04-03T15:19:29;3.97;;;1.20;;
48629;SDS011;34426;52.180;4.462;2023-04-03T15:21:57;2.50;;;1.10;;
48629;SDS011;34426;52.180;4.462;2023-04-03T15:24:23;2.70;;;1.17;;
48629;SDS011;34426;52.180;4.462;2023-04-03T15:26:48;2.97;;;1.80;;
48629;SDS011;34426;52.180;4.462;2023-04-03T15:29:14;1.73;;;1.00;;
48629;SDS011;34426;52.180;4.462;2023-04-03T15:31:39;3.30;;;1.00;;
48629;SDS011;34426;52.180;4.462;2023-04-03T15:34:05;3.03;;;1.13;;
48629;SDS011;34426;52.180;4.462;2023-04-03T15:36:30;3.10;;;1.50;;
48629;SDS011;34426;52.180;4.462;2023-04-03T15:38:57;2.72;;;1.30;;